»·PEaware :: N4B KSLC-KEGE

N4B :: KSLC-KEGE

FLIGHT INFORMATION

Flight Status: Arrived
Operator: Privately registered:
United States
More flights under this callsign
Pilot: Brenden M. (4822)
Aircraft: DEHAVILLAND DASH 8 400
(DH8D)
More flights by this aircraft type
Origin: KSLC Salt Lake City Intl
United States
Destination: KEGE Eagle Co Regl
United States
More flights between these airports :: More routes between these airports
Route: SLC4 EKR RLG
File this flight plan on PilotEdge
Remarks:
Altitude:
(Current/Filed)
27,000ft
Speed:
(Current/Filed)
300kts
Departed: 11-Jan-19 05:13 PM
Arrived: 11-Jan-19 06:35 PM
Distance/Time
Traveled:
242nm/1:22
Distance/Time
To Go:
Arrived

Flight Plot

Page will automatically refresh every two minutes.

Flight plan parsing failed; only flown route is shown


Map Options




Map Legend


Flown Route
Filed Route
Departure Airport
Arrival Airport
Navaid (VOR, NDB)
Fix

Horizontal Profiles

Position Reports

Time Latitude Longitude Heading Altitude Ground
Speed
11-Jan-19 16:46 40.777333 -111.958445 89 4234ft 0kts
11-Jan-19 16:47 40.777333 -111.958445 89 4234ft 0kts
11-Jan-19 16:48 40.777333 -111.958445 89 4234ft 0kts
11-Jan-19 16:49 40.777333 -111.958445 89 4234ft 0kts
11-Jan-19 16:50 40.777333 -111.958445 89 4234ft 0kts
11-Jan-19 16:51 40.777333 -111.958445 89 4234ft 0kts
11-Jan-19 16:52 40.777333 -111.958445 89 4234ft 0kts
11-Jan-19 16:53 40.777333 -111.958445 89 4234ft 0kts
11-Jan-19 16:54 40.777333 -111.958445 89 4234ft 0kts
11-Jan-19 16:55 40.777333 -111.958445 89 4234ft 0kts
11-Jan-19 16:56 40.777333 -111.958445 89 4234ft 0kts
11-Jan-19 16:57 40.777333 -111.958445 89 4234ft 0kts
11-Jan-19 16:58 40.777333 -111.958445 89 4234ft 0kts
11-Jan-19 16:59 40.777333 -111.958445 89 4234ft 0kts
11-Jan-19 17:00 40.777333 -111.958445 89 4234ft 0kts
11-Jan-19 17:01 40.777333 -111.958445 89 4234ft 0kts
11-Jan-19 17:02 40.777333 -111.958445 89 4234ft 0kts
11-Jan-19 17:03 40.777333 -111.958419 90 4234ft 0kts
11-Jan-19 17:04 40.777360 -111.959120 260 4234ft 9kts
11-Jan-19 17:05 40.775919 -111.960617 180 4234ft 10kts
11-Jan-19 17:06 40.773640 -111.960617 180 4234ft 4kts
11-Jan-19 17:07 40.773574 -111.960618 180 4234ft 0kts
11-Jan-19 17:08 40.773180 -111.960630 181 4234ft 2kts
11-Jan-19 17:09 40.772708 -111.960985 251 4234ft 0kts
11-Jan-19 17:10 40.772708 -111.960985 251 4234ft 0kts
11-Jan-19 17:11 40.772708 -111.960985 251 4234ft 0kts
11-Jan-19 17:12 40.776953 -111.962156 356 4235ft 84kts
11-Jan-19 17:13 40.818285 -111.971976 324 5405ft 208kts
11-Jan-19 17:14 40.878279 -112.020157 333 6682ft 258kts
11-Jan-19 17:15 40.942252 -112.063784 331 8386ft 264kts
11-Jan-19 17:16 41.010889 -112.092460 14 10656ft 267kts
11-Jan-19 17:17 41.071901 -112.041027 32 12727ft 263kts
11-Jan-19 17:18 41.131929 -111.985933 32 14289ft 266kts
11-Jan-19 17:19 41.151197 -111.897272 101 15625ft 294kts
11-Jan-19 17:20 41.124874 -111.795428 101 16793ft 297kts
11-Jan-19 17:21 41.099004 -111.695178 100 18471ft 283kts
11-Jan-19 17:22 41.074166 -111.599576 99 20141ft 273kts
11-Jan-19 17:23 41.049994 -111.506787 98 21821ft 262kts
11-Jan-19 17:24 41.026736 -111.417892 97 23493ft 251kts
11-Jan-19 17:25 41.004194 -111.331590 96 24990ft 246kts
11-Jan-19 17:26 40.982112 -111.246763 95 26302ft 244kts
11-Jan-19 17:27 40.959724 -111.159658 95 27189ft 260kts
11-Jan-19 17:28 40.935374 -111.061850 97 27265ft 304kts
11-Jan-19 17:29 40.907326 -110.951137 99 27264ft 335kts
11-Jan-19 17:30 40.876711 -110.832212 100 27261ft 354kts
11-Jan-19 17:31 40.844564 -110.708969 100 27263ft 365kts
11-Jan-19 17:32 40.811541 -110.583141 101 27259ft 371kts
11-Jan-19 17:33 40.777670 -110.454938 101 27258ft 375kts
11-Jan-19 17:34 40.743320 -110.325910 102 27258ft 375kts
11-Jan-19 17:35 40.708859 -110.197581 102 27257ft 373kts
11-Jan-19 17:36 40.674850 -110.071630 102 27252ft 367kts
11-Jan-19 17:37 40.641520 -109.948194 103 27251ft 355kts
11-Jan-19 17:38 40.609056 -109.828174 104 27250ft 349kts
11-Jan-19 17:39 40.576977 -109.711263 104 27249ft 345kts
11-Jan-19 17:40 40.544811 -109.594619 104 27249ft 342kts
11-Jan-19 17:41 40.512848 -109.478938 104 27246ft 341kts
11-Jan-19 17:42 40.480777 -109.363363 104 27246ft 336kts
11-Jan-19 17:43 40.449371 -109.250895 105 27248ft 326kts
11-Jan-19 17:44 40.428544 -109.139043 95 27248ft 315kts
11-Jan-19 17:45 40.412682 -109.028386 96 27249ft 311kts
11-Jan-19 17:46 40.396807 -108.918413 96 27249ft 309kts
11-Jan-19 17:47 40.381008 -108.809673 97 27251ft 307kts
11-Jan-19 17:48 40.365045 -108.700523 98 27248ft 307kts
11-Jan-19 17:49 40.349009 -108.591585 99 27246ft 306kts
11-Jan-19 17:50 40.332916 -108.483538 99 27242ft 306kts
11-Jan-19 17:51 40.316646 -108.375249 100 27236ft 307kts
11-Jan-19 17:52 40.300295 -108.267410 101 27228ft 307kts
11-Jan-19 17:53 40.283526 -108.157889 101 26694ft 321kts
11-Jan-19 17:54 40.265484 -108.039737 102 25199ft 338kts
11-Jan-19 17:55 40.247095 -107.919949 103 23706ft 335kts
11-Jan-19 17:57 40.228165 -107.801523 103 22209ft 331kts
11-Jan-19 17:58 40.209139 -107.685181 104 20729ft 325kts
11-Jan-19 17:59 40.190711 -107.572219 102 19253ft 319kts
11-Jan-19 18:00 40.172582 -107.462527 101 17731ft 307kts
11-Jan-19 18:01 40.155349 -107.358486 99 17214ft 280kts
11-Jan-19 18:02 40.139610 -107.262862 101 17207ft 264kts
11-Jan-19 18:03 40.115105 -107.174603 109 17202ft 257kts
11-Jan-19 18:04 40.089846 -107.089336 109 17200ft 252kts
11-Jan-19 18:05 40.064665 -107.004728 110 17192ft 247kts
11-Jan-19 18:06 40.039998 -106.923610 109 17192ft 241kts
11-Jan-19 18:07 40.014317 -106.839041 109 16204ft 269kts
11-Jan-19 18:08 39.972546 -106.756392 142 14731ft 297kts
11-Jan-19 18:09 39.911300 -106.699355 141 14177ft 230kts
11-Jan-19 18:10 39.865768 -106.656302 141 14201ft 205kts
11-Jan-19 18:11 39.818540 -106.612371 153 14162ft 213kts
11-Jan-19 18:12 39.760890 -106.618970 192 13703ft 212kts
11-Jan-19 18:13 39.706797 -106.642938 215 12342ft 191kts
11-Jan-19 18:14 39.677375 -106.704607 249 11336ft 206kts
11-Jan-19 18:15 39.661307 -106.774135 257 11250ft 202kts
11-Jan-19 18:15 39.653235 -106.834255 259 10668ft 196kts
11-Jan-19 18:16 39.643785 -106.906268 262 6539ft 193kts
11-Jan-19 18:18 39.633139 -106.978810 256 9631ft 171kts
11-Jan-19 18:19 39.627322 -107.046406 296 11239ft 237kts
11-Jan-19 18:19 39.671599 -107.088803 345 12487ft 250kts
11-Jan-19 18:20 39.738047 -107.076030 31 14179ft 258kts
11-Jan-19 18:21 39.777602 -107.001136 59 15168ft 263kts
11-Jan-19 18:22 39.813268 -106.916916 59 15192ft 260kts
11-Jan-19 18:23 39.846815 -106.838379 60 14847ft 246kts
11-Jan-19 18:24 39.880428 -106.760932 60 13911ft 235kts
11-Jan-19 18:25 39.876328 -106.693723 130 14173ft 197kts
11-Jan-19 18:26 39.839148 -106.643795 130 14179ft 190kts
11-Jan-19 18:27 39.794975 -106.611045 182 14055ft 203kts
11-Jan-19 18:28 39.739166 -106.626741 193 12881ft 198kts
11-Jan-19 18:29 39.696700 -106.652020 225 12123ft 157kts
11-Jan-19 18:30 39.680276 -106.698257 274 12304ft 171kts
11-Jan-19 18:31 39.666393 -106.758871 250 11041ft 178kts
11-Jan-19 18:32 39.655374 -106.822256 263 8945ft 172kts
11-Jan-19 18:33 39.646492 -106.881794 262 7067ft 159kts
11-Jan-19 18:34 39.642110 -106.921924 262 6523ft 14kts
11-Jan-19 18:35 39.641295 -106.919042 83 6523ft 29kts
11-Jan-19 18:36 39.640598 -106.915462 171 6523ft 4kts
11-Jan-19 18:37 39.640556 -106.915454 171 6522ft 0kts

Navigation Log

Ident Type
Flight plan parsing failed, navigation log unavailable